createdAt,value
2023-04-20T00:00:47.630Z,5.07
2023-04-20T00:03:17.959Z,4.63
2023-04-20T00:05:48.012Z,4.90
2023-04-20T00:08:18.686Z,6.40
2023-04-20T00:10:47.547Z,4.90
2023-04-20T00:13:16.030Z,5.40
2023-04-20T00:15:44.854Z,6.90
2023-04-20T00:18:13.047Z,5.63
2023-04-20T00:20:41.547Z,5.07
2023-04-20T00:23:10.100Z,4.20
2023-04-20T00:25:39.767Z,5.50
2023-04-20T00:28:08.279Z,5.37
2023-04-20T00:30:36.904Z,5.13
2023-04-20T00:33:05.617Z,5.13
2023-04-20T00:35:35.739Z,5.85
2023-04-20T00:38:05.719Z,5.47
2023-04-20T00:40:35.253Z,5.70
2023-04-20T00:43:12.066Z,5.35
2023-04-20T00:45:40.585Z,5.00
2023-04-20T00:48:10.742Z,5.43
2023-04-20T00:50:39.903Z,5.27
2023-04-20T00:53:08.661Z,6.07
2023-04-20T00:55:37.740Z,5.90
2023-04-20T00:58:06.946Z,5.70
2023-04-20T01:00:35.936Z,5.92
2023-04-20T01:03:05.944Z,6.15
2023-04-20T01:05:34.722Z,7.03
2023-04-20T01:08:03.211Z,5.80
2023-04-20T01:10:31.786Z,5.73
2023-04-20T01:13:00.526Z,6.27
2023-04-20T01:15:29.064Z,6.97
2023-04-20T01:17:57.895Z,6.87
2023-04-20T01:20:26.678Z,6.73
2023-04-20T01:22:55.183Z,5.27
2023-04-20T01:25:23.612Z,6.17
2023-04-20T01:27:53.571Z,7.13
2023-04-20T01:30:22.949Z,5.77
2023-04-20T01:32:51.574Z,7.10
2023-04-20T01:35:20.119Z,6.47
2023-04-20T01:37:48.618Z,6.80
2023-04-20T01:40:16.894Z,6.20
2023-04-20T01:42:45.475Z,6.40
2023-04-20T01:45:13.980Z,6.10
2023-04-20T01:47:42.512Z,5.80
2023-04-20T01:50:11.432Z,6.37
2023-04-20T01:52:40.135Z,6.67
2023-04-20T01:55:09.874Z,8.90
2023-04-20T01:57:38.654Z,9.38
2023-04-20T02:00:08.738Z,9.83
2023-04-20T02:02:39.621Z,8.55
2023-04-20T02:05:08.521Z,7.80
2023-04-20T02:07:36.986Z,6.30
2023-04-20T02:10:07.511Z,6.90
2023-04-20T02:12:36.523Z,6.78
2023-04-20T02:15:06.256Z,6.47
2023-04-20T02:17:36.199Z,7.30
2023-04-20T02:20:09.281Z,6.67
2023-04-20T02:22:38.085Z,7.00
2023-04-20T02:25:07.079Z,7.67
2023-04-20T02:27:36.374Z,6.25
2023-04-20T02:30:05.859Z,5.27
2023-04-20T02:32:35.008Z,6.35
2023-04-20T02:35:06.852Z,6.80
2023-04-20T02:37:35.392Z,4.87
2023-04-20T02:40:05.745Z,7.03
2023-04-20T02:42:34.264Z,6.37
2023-04-20T02:45:03.428Z,7.53
2023-04-20T02:47:32.220Z,6.17
2023-04-20T02:50:01.066Z,5.17
2023-04-20T02:52:30.658Z,6.12
2023-04-20T02:54:59.742Z,7.03
2023-04-20T02:57:28.528Z,5.70
2023-04-20T02:59:57.341Z,5.90
2023-04-20T03:02:27.494Z,6.47
2023-04-20T03:04:56.712Z,5.37
2023-04-20T03:07:26.266Z,5.80
2023-04-20T03:09:54.803Z,6.87
2023-04-20T03:12:43.046Z,5.70
2023-04-20T03:15:13.173Z,6.07
2023-04-20T03:17:43.236Z,5.60
2023-04-20T03:20:13.350Z,6.20
2023-04-20T03:22:41.869Z,7.17
2023-04-20T03:25:11.802Z,7.23
2023-04-20T03:27:46.709Z,7.00
2023-04-20T03:30:16.085Z,6.10
2023-04-20T03:32:46.411Z,6.92
2023-04-20T03:35:15.019Z,6.57
2023-04-20T03:37:44.359Z,6.17
2023-04-20T03:40:13.149Z,6.17
2023-04-20T03:42:42.075Z,5.67
2023-04-20T03:45:11.128Z,6.47
2023-04-20T03:47:39.677Z,6.50
2023-04-20T03:50:08.518Z,6.00
2023-04-20T03:52:37.019Z,6.73
2023-04-20T03:55:06.375Z,7.33
2023-04-20T03:57:35.229Z,5.77
2023-04-20T04:00:05.221Z,6.40
2023-04-20T04:02:37.639Z,5.77
2023-04-20T04:05:05.730Z,6.83
2023-04-20T04:07:34.655Z,6.72
2023-04-20T04:10:04.992Z,6.07
2023-04-20T04:12:33.427Z,7.20
2023-04-20T04:15:02.736Z,6.37
2023-04-20T04:17:32.814Z,6.20
2023-04-20T04:20:01.642Z,5.20
2023-04-20T04:22:30.725Z,6.40
2023-04-20T04:25:00.780Z,6.07
2023-04-20T04:27:31.619Z,6.07
2023-04-20T04:30:00.869Z,6.23
2023-04-20T04:32:29.494Z,6.47
2023-04-20T04:34:59.779Z,6.00
2023-04-20T04:37:28.958Z,6.67
2023-04-20T04:39:58.274Z,6.03
2023-04-20T04:42:28.773Z,5.97
2023-04-20T04:44:59.910Z,5.97
2023-04-20T04:47:32.498Z,5.37
2023-04-20T04:50:01.948Z,5.97
2023-04-20T04:52:31.050Z,5.73
2023-04-20T04:54:59.702Z,5.90
2023-04-20T04:57:28.275Z,6.60
2023-04-20T04:59:57.070Z,7.00
2023-04-20T05:02:26.156Z,6.80
2023-04-20T05:04:54.816Z,7.50
2023-04-20T05:07:24.712Z,7.63
2023-04-20T05:09:52.991Z,6.13
2023-04-20T05:12:21.287Z,6.60
2023-04-20T05:14:49.782Z,7.40
2023-04-20T05:17:18.033Z,6.70
2023-04-20T05:19:46.630Z,7.00
2023-04-20T05:22:15.125Z,7.37
2023-04-20T05:24:43.644Z,7.40
2023-04-20T05:27:11.991Z,7.23
2023-04-20T05:29:40.515Z,7.30
2023-04-20T05:32:09.101Z,6.67
2023-04-20T05:34:38.624Z,7.43
2023-04-20T05:37:07.099Z,7.27
2023-04-20T05:39:35.685Z,7.30
2023-04-20T05:42:05.058Z,7.13
2023-04-20T05:44:34.041Z,7.33
2023-04-20T05:47:04.642Z,7.73
2023-04-20T05:49:33.230Z,8.60
2023-04-20T05:52:01.802Z,7.83
2023-04-20T05:54:30.588Z,6.80
2023-04-20T05:56:59.386Z,7.95
2023-04-20T05:59:27.981Z,7.47
2023-04-20T06:01:56.985Z,7.23
2023-04-20T06:04:25.868Z,7.67
2023-04-20T06:06:55.371Z,7.73
2023-04-20T06:09:23.864Z,7.53
2023-04-20T06:11:52.652Z,8.13
2023-04-20T06:14:20.903Z,7.73
2023-04-20T06:16:50.317Z,7.60
2023-04-20T06:19:18.669Z,8.40
2023-04-20T06:21:47.812Z,9.65
2023-04-20T06:24:16.184Z,9.77
2023-04-20T06:26:44.799Z,10.80
2023-04-20T06:29:13.193Z,9.97
2023-04-20T06:31:41.787Z,11.03
2023-04-20T06:34:10.475Z,11.57
2023-04-20T06:36:40.903Z,10.55
2023-04-20T06:39:09.210Z,11.23
2023-04-20T06:41:38.786Z,11.83
2023-04-20T06:44:07.330Z,10.13
2023-04-20T06:46:36.231Z,10.27
2023-04-20T06:49:04.947Z,10.77
2023-04-20T06:51:33.564Z,10.57
2023-04-20T06:54:02.104Z,11.70
2023-04-20T06:56:30.615Z,10.87
2023-04-20T06:58:59.475Z,11.40
2023-04-20T07:01:28.213Z,12.53
2023-04-20T07:03:57.211Z,10.83
2023-04-20T07:06:28.227Z,11.30
2023-04-20T07:08:56.720Z,12.15
2023-04-20T07:11:25.378Z,12.63
2023-04-20T07:13:54.212Z,12.40
2023-04-20T07:16:22.824Z,13.60
2023-04-20T07:18:51.431Z,12.57
2023-04-20T07:21:19.953Z,12.97
2023-04-20T07:23:48.577Z,11.67
2023-04-20T07:26:17.027Z,11.93
2023-04-20T07:28:46.521Z,11.73
2023-04-20T07:31:15.060Z,12.27
2023-04-20T07:33:43.717Z,12.30
2023-04-20T07:36:12.270Z,11.60
2023-04-20T07:38:41.134Z,11.18
2023-04-20T07:41:10.963Z,12.50
2023-04-20T07:43:39.296Z,12.20
2023-04-20T07:46:08.039Z,11.83
2023-04-20T07:48:37.349Z,11.70
2023-04-20T07:51:05.905Z,11.50
2023-04-20T07:53:35.451Z,12.03
2023-04-20T07:56:05.117Z,11.18
2023-04-20T07:58:34.842Z,11.60
2023-04-20T08:01:03.372Z,11.93
2023-04-20T08:03:33.515Z,13.07
2023-04-20T08:06:02.464Z,10.97
2023-04-20T08:08:31.027Z,12.83
2023-04-20T08:10:59.582Z,11.87
2023-04-20T08:13:28.321Z,13.53
2023-04-20T08:15:56.888Z,14.50
2023-04-20T08:18:25.400Z,11.93
2023-04-20T08:20:54.302Z,12.58
2023-04-20T08:23:24.747Z,13.30
2023-04-20T08:25:53.313Z,12.40
2023-04-20T08:28:32.970Z,12.67
2023-04-20T08:30:53.004Z,13.90
2023-04-20T08:33:21.359Z,11.43
2023-04-20T08:35:51.718Z,12.43
2023-04-20T08:38:30.671Z,12.40
2023-04-20T08:40:51.923Z,13.17
2023-04-20T08:43:21.935Z,12.53
2023-04-20T08:45:51.662Z,11.85
2023-04-20T08:48:21.437Z,12.97
2023-04-20T08:50:51.142Z,12.97
2023-04-20T08:53:21.681Z,13.07
2023-04-20T08:55:50.888Z,12.93
2023-04-20T08:58:19.587Z,12.23
2023-04-20T09:00:49.677Z,13.23
2023-04-20T09:03:18.226Z,12.20
2023-04-20T09:05:47.148Z,10.50
2023-04-20T09:08:15.562Z,12.23
2023-04-20T09:10:44.673Z,11.77
2023-04-20T09:13:22.692Z,11.13
2023-04-20T09:15:51.785Z,13.05
2023-04-20T09:18:20.381Z,12.43
2023-04-20T09:20:48.940Z,10.93
2023-04-20T09:23:18.211Z,11.17
2023-04-20T09:25:48.551Z,10.88
2023-04-20T09:28:17.820Z,10.73
2023-04-20T09:30:47.193Z,11.03
2023-04-20T09:33:15.915Z,11.70
2023-04-20T09:35:47.451Z,11.93
2023-04-20T09:40:42.787Z,10.65
2023-04-20T09:43:14.757Z,10.87
2023-04-20T09:45:43.188Z,10.80
2023-04-20T09:48:12.000Z,9.93
2023-04-20T09:50:48.568Z,9.27
2023-04-20T09:53:11.739Z,10.95
2023-04-20T09:55:40.255Z,10.30
2023-04-20T09:58:08.845Z,11.90
2023-04-20T10:00:37.383Z,10.67
2023-04-20T10:03:07.787Z,9.77
2023-04-20T10:05:37.150Z,10.10
2023-04-20T10:08:06.453Z,10.47
2023-04-20T10:10:46.596Z,9.63
2023-04-20T10:13:15.307Z,10.53
2023-04-20T10:15:43.940Z,9.60
2023-04-20T10:18:19.421Z,8.97
2023-04-20T10:20:48.312Z,9.07
2023-04-20T10:23:18.466Z,9.93
2023-04-20T10:25:57.328Z,9.03
2023-04-20T10:28:26.216Z,10.03
2023-04-20T10:30:54.937Z,10.20
2023-04-20T10:33:23.279Z,9.67
2023-04-20T10:35:54.736Z,7.43
2023-04-20T10:38:30.331Z,8.80
2023-04-20T10:41:00.446Z,9.67
2023-04-20T10:43:29.721Z,9.03
2023-04-20T10:45:58.288Z,8.27
2023-04-20T10:48:26.953Z,7.83
2023-04-20T10:50:56.334Z,7.50
2023-04-20T10:53:24.881Z,7.90
2023-04-20T10:56:00.008Z,7.73
2023-04-20T10:58:28.598Z,8.93
2023-04-20T11:01:01.370Z,7.90
2023-04-20T11:03:30.831Z,8.03
2023-04-20T11:06:03.499Z,8.67
2023-04-20T11:08:38.741Z,8.37
2023-04-20T11:11:07.826Z,9.27
2023-04-20T11:13:37.267Z,9.03
2023-04-20T11:16:12.889Z,8.90
2023-04-20T11:18:54.746Z,9.30
2023-04-20T11:23:50.952Z,7.95
2023-04-20T11:26:19.234Z,8.43
2023-04-20T11:28:56.975Z,8.83
2023-04-20T11:31:27.297Z,9.03
2023-04-20T11:33:55.751Z,9.30
2023-04-20T11:36:24.656Z,9.03
2023-04-20T11:38:53.250Z,8.43
2023-04-20T11:41:21.663Z,9.00
2023-04-20T11:43:51.210Z,8.83
2023-04-20T11:46:21.070Z,8.17
2023-04-20T11:48:50.060Z,9.80
2023-04-20T11:51:18.588Z,8.60
2023-04-20T11:53:47.538Z,9.13
2023-04-20T11:56:16.955Z,8.57
2023-04-20T11:58:45.536Z,8.20
2023-04-20T12:01:13.932Z,8.80
2023-04-20T12:03:44.030Z,8.50
2023-04-20T12:06:13.775Z,8.33
2023-04-20T12:08:43.151Z,8.15
2023-04-20T12:11:11.444Z,8.33
2023-04-20T12:13:39.942Z,8.73
2023-04-20T12:16:08.681Z,8.33
2023-04-20T12:18:38.423Z,7.93
2023-04-20T12:21:07.617Z,8.03
2023-04-20T12:23:37.770Z,7.70
2023-04-20T12:26:06.840Z,7.33
2023-04-20T12:28:36.312Z,7.53
2023-04-20T12:31:05.097Z,7.27
2023-04-20T12:33:33.655Z,7.23
2023-04-20T12:36:02.233Z,5.73
2023-04-20T12:38:30.898Z,6.87
2023-04-20T12:40:59.659Z,6.77
2023-04-20T12:43:28.797Z,7.33
2023-04-20T12:45:57.332Z,8.60
2023-04-20T12:48:25.871Z,8.20
2023-04-20T12:50:54.641Z,7.30
2023-04-20T12:53:23.535Z,7.10
2023-04-20T12:56:00.360Z,8.25
2023-04-20T12:58:22.653Z,8.30
2023-04-20T13:00:51.218Z,8.70
2023-04-20T13:03:19.818Z,7.90
2023-04-20T13:05:48.788Z,7.35
2023-04-20T13:08:17.195Z,6.57
2023-04-20T13:10:45.864Z,6.87
2023-04-20T13:13:14.411Z,6.83
2023-04-20T13:15:43.197Z,6.87
2023-04-20T13:18:11.621Z,6.90
2023-04-20T13:20:40.652Z,6.63
2023-04-20T13:23:09.087Z,5.43
2023-04-20T13:25:38.815Z,4.73
2023-04-20T13:28:07.501Z,6.17
2023-04-20T13:30:36.020Z,5.63
2023-04-20T13:33:06.416Z,5.95
2023-04-20T13:35:35.368Z,6.17
2023-04-20T13:38:05.380Z,6.40
2023-04-20T13:40:34.035Z,6.37
2023-04-20T13:43:02.614Z,6.10
2023-04-20T13:45:31.372Z,5.63
2023-04-20T13:48:00.056Z,5.20
2023-04-20T13:50:28.616Z,5.63
2023-04-20T13:52:57.943Z,5.83
2023-04-20T13:55:27.226Z,4.77
2023-04-20T13:57:56.712Z,4.93
2023-04-20T14:00:26.271Z,4.62
2023-04-20T14:02:54.920Z,5.40
2023-04-20T14:05:23.441Z,4.57
2023-04-20T14:07:51.948Z,4.70
2023-04-20T14:10:20.545Z,6.67
2023-04-20T14:12:49.422Z,6.45
2023-04-20T14:15:17.668Z,6.53
2023-04-20T14:17:46.522Z,6.83
2023-04-20T14:20:14.821Z,6.73
2023-04-20T14:22:43.712Z,6.93
2023-04-20T14:25:12.240Z,6.07
2023-04-20T14:27:40.726Z,5.43
2023-04-20T14:30:09.908Z,4.85
2023-04-20T14:32:38.437Z,6.90
2023-04-20T14:35:08.652Z,2.93
2023-04-20T14:37:36.913Z,4.43
2023-04-20T14:40:07.159Z,3.77
2023-04-20T14:42:35.596Z,4.93
2023-04-20T14:45:04.400Z,4.73
2023-04-20T14:47:33.206Z,3.97
2023-04-20T14:50:01.882Z,3.17
2023-04-20T14:52:30.738Z,3.60
2023-04-20T14:54:59.563Z,3.83
2023-04-20T14:57:28.078Z,3.60
2023-04-20T14:59:56.609Z,3.87
2023-04-20T15:02:25.475Z,4.27
2023-04-20T15:04:55.268Z,3.80
2023-04-20T15:07:23.773Z,2.80
2023-04-20T15:09:52.280Z,2.10
2023-04-20T15:12:21.432Z,2.85
2023-04-20T15:14:49.948Z,2.53
2023-04-20T15:17:18.474Z,3.40
2023-04-20T15:19:47.010Z,3.33
2023-04-20T15:22:15.625Z,4.70
2023-04-20T15:24:44.139Z,3.93
2023-04-20T15:27:12.972Z,4.25
2023-04-20T15:29:41.765Z,1.57
2023-04-20T15:32:10.091Z,2.57
2023-04-20T15:34:38.981Z,4.05
2023-04-20T15:37:07.463Z,2.53
2023-04-20T15:39:35.995Z,2.80
2023-04-20T15:42:04.529Z,3.83
2023-04-20T15:44:33.084Z,2.60
2023-04-20T15:47:02.265Z,3.00
2023-04-20T15:49:30.774Z,3.17
2023-04-20T15:51:59.294Z,1.87
2023-04-20T15:54:27.782Z,2.47
2023-04-20T15:56:56.744Z,2.58
2023-04-20T15:59:25.388Z,2.13
2023-04-20T16:01:54.035Z,1.87
2023-04-20T16:04:23.379Z,5.30
2023-04-20T16:06:52.666Z,2.25
2023-04-20T16:09:22.999Z,2.50
2023-04-20T16:11:50.708Z,1.53
2023-04-20T16:14:19.107Z,1.97
2023-04-20T16:16:47.708Z,6.03
2023-04-20T16:19:16.305Z,2.10
2023-04-20T16:21:44.802Z,2.10
2023-04-20T16:24:13.039Z,2.20
2023-04-20T16:26:41.522Z,2.30
2023-04-20T16:29:10.058Z,2.53
2023-04-20T16:31:38.671Z,2.60
2023-04-20T16:34:06.980Z,2.93
2023-04-20T16:36:35.537Z,2.97
2023-04-20T16:39:06.457Z,2.73
2023-04-20T16:41:34.668Z,3.03
2023-04-20T16:44:03.794Z,2.83
2023-04-20T16:46:32.666Z,3.02
2023-04-20T16:49:01.495Z,2.58
2023-04-20T16:51:30.427Z,4.03
2023-04-20T16:54:00.289Z,3.12
2023-04-20T16:56:29.109Z,2.70
2023-04-20T16:58:58.183Z,3.10
2023-04-20T17:01:26.780Z,2.67
2023-04-20T17:03:55.573Z,2.53
2023-04-20T17:06:24.168Z,3.83
2023-04-20T17:08:54.317Z,3.20
2023-04-20T17:11:23.104Z,4.30
2023-04-20T17:13:52.383Z,4.62
2023-04-20T17:16:20.755Z,4.63
2023-04-20T17:18:49.240Z,2.60
2023-04-20T17:21:17.497Z,3.50
2023-04-20T17:23:47.188Z,2.40
2023-04-20T17:26:15.607Z,2.07
2023-04-20T17:28:44.374Z,2.60
2023-04-20T17:31:12.986Z,2.93
2023-04-20T17:33:41.580Z,2.40
2023-04-20T17:36:10.160Z,3.97
2023-04-20T17:38:38.670Z,2.93
2023-04-20T17:41:07.817Z,2.57
2023-04-20T17:43:37.944Z,2.43
2023-04-20T17:46:08.008Z,3.83
2023-04-20T17:48:36.325Z,2.80
2023-04-20T17:51:05.596Z,4.10
2023-04-20T17:53:34.080Z,2.97
2023-04-20T17:56:02.589Z,2.47
2023-04-20T17:58:31.182Z,2.77
2023-04-20T18:07:32.113Z,2.73
2023-04-20T18:10:01.065Z,2.45
2023-04-20T18:12:29.588Z,3.03
2023-04-20T18:14:58.053Z,4.50
2023-04-20T18:17:26.945Z,3.80
2023-04-20T18:19:55.530Z,3.27
2023-04-20T18:22:24.238Z,3.03
2023-04-20T18:24:54.065Z,3.20
2023-04-20T18:27:22.632Z,4.50
2023-04-20T18:29:52.968Z,2.77
2023-04-20T18:32:21.333Z,3.37
2023-04-20T18:34:49.876Z,3.83
2023-04-20T18:37:18.396Z,3.23
2023-04-20T18:39:48.728Z,2.80
2023-04-20T18:42:17.002Z,2.77
2023-04-20T18:44:45.628Z,2.80
2023-04-20T18:47:15.900Z,3.83
2023-04-20T18:49:45.321Z,3.92
2023-04-20T18:52:13.999Z,3.60
2023-04-20T18:54:42.496Z,5.37
2023-04-20T18:57:11.010Z,4.20
2023-04-20T18:59:39.536Z,4.33
2023-04-20T19:02:09.922Z,4.00
2023-04-20T19:04:38.833Z,4.20
2023-04-20T19:07:07.051Z,4.43
2023-04-20T19:09:35.678Z,4.13
2023-04-20T19:12:04.932Z,4.73
2023-04-20T19:14:33.724Z,4.05
2023-04-20T19:17:03.748Z,4.43
2023-04-20T19:19:32.539Z,4.80
2023-04-20T19:22:01.626Z,4.20
2023-04-20T19:24:31.952Z,4.33
2023-04-20T19:27:00.909Z,4.87
2023-04-20T19:29:29.537Z,4.77
2023-04-20T19:31:58.158Z,4.70
2023-04-20T19:34:26.970Z,4.97
2023-04-20T19:36:55.499Z,4.83
2023-04-20T19:39:24.075Z,5.80
2023-04-20T19:41:52.581Z,7.90
2023-04-20T19:44:20.864Z,6.77
2023-04-20T19:46:49.870Z,7.77
2023-04-20T19:49:18.983Z,6.30
2023-04-20T19:51:47.834Z,5.53
2023-04-20T19:54:17.386Z,5.03
2023-04-20T19:56:45.912Z,5.40
2023-04-20T19:59:14.484Z,4.43
2023-04-20T20:01:43.023Z,3.93
2023-04-20T20:04:11.709Z,4.67
2023-04-20T20:06:40.481Z,4.70
2023-04-20T20:09:09.090Z,3.63
2023-04-20T20:11:37.591Z,4.87
2023-04-20T20:14:06.216Z,3.10
2023-04-20T20:16:34.718Z,4.03
2023-04-20T20:19:03.771Z,3.73
2023-04-20T20:21:32.241Z,3.77
2023-04-20T20:24:00.762Z,3.83
2023-04-20T20:26:29.397Z,3.53
2023-04-20T20:28:57.922Z,3.43
2023-04-20T20:31:26.549Z,3.80
2023-04-20T20:33:55.261Z,4.00
2023-04-20T20:36:23.875Z,3.80
2023-04-20T20:38:53.249Z,3.05
2023-04-20T20:41:21.714Z,3.33
2023-04-20T20:43:50.418Z,3.37
2023-04-20T20:46:19.229Z,3.90
2023-04-20T20:48:47.788Z,3.47
2023-04-20T20:51:16.769Z,3.43
2023-04-20T20:53:46.115Z,3.30
2023-04-20T20:56:14.603Z,3.23
2023-04-20T20:58:43.089Z,4.57
2023-04-20T21:01:11.932Z,3.07
2023-04-20T21:03:40.850Z,3.50
2023-04-20T21:06:09.541Z,3.40
2023-04-20T21:08:38.291Z,3.73
2023-04-20T21:11:06.870Z,3.07
2023-04-20T21:13:35.464Z,3.37
2023-04-20T21:16:05.192Z,4.08
2023-04-20T21:18:33.796Z,4.10
2023-04-20T21:21:02.342Z,2.63
2023-04-20T21:23:30.846Z,4.43
2023-04-20T21:25:59.414Z,2.80
2023-04-20T21:28:27.946Z,3.60
2023-04-20T21:30:56.509Z,3.83
2023-04-20T21:33:25.149Z,3.13
2023-04-20T21:35:54.212Z,3.20
2023-04-20T21:38:23.224Z,3.03
2023-04-20T21:40:51.736Z,3.27
2023-04-20T21:43:20.332Z,3.07
2023-04-20T21:45:50.824Z,3.20
2023-04-20T21:48:19.222Z,3.50
2023-04-20T21:50:47.740Z,3.57
2023-04-20T21:53:16.404Z,3.77
2023-04-20T21:55:45.055Z,3.40
2023-04-20T21:58:13.288Z,4.83
2023-04-20T22:00:42.118Z,3.00
2023-04-20T22:03:10.695Z,3.23
2023-04-20T22:05:39.429Z,3.90
2023-04-20T22:08:07.880Z,3.67
2023-04-20T22:10:36.461Z,3.30
2023-04-20T22:13:05.104Z,4.43
2023-04-20T22:15:33.665Z,3.53
2023-04-20T22:18:03.878Z,3.03
2023-04-20T22:20:32.596Z,3.53
2023-04-20T22:23:01.420Z,5.10
2023-04-20T22:25:30.013Z,3.40
2023-04-20T22:27:58.570Z,3.80
2023-04-20T22:30:27.286Z,3.70
2023-04-20T22:32:56.100Z,4.00
2023-04-20T22:35:24.610Z,3.30
2023-04-20T22:37:53.664Z,3.90
2023-04-20T22:40:22.254Z,3.33
2023-04-20T22:42:50.998Z,4.00
2023-04-20T22:45:22.402Z,3.77
2023-04-20T22:47:51.015Z,6.80
2023-04-20T22:50:19.583Z,3.70
2023-04-20T22:52:49.366Z,4.07
2023-04-20T22:55:17.852Z,5.03
2023-04-20T22:57:46.636Z,4.25
2023-04-20T23:00:14.992Z,5.67
2023-04-20T23:02:43.858Z,3.65
2023-04-20T23:05:12.441Z,5.07
2023-04-20T23:07:41.393Z,3.90
2023-04-20T23:10:10.716Z,4.90
2023-04-20T23:12:39.489Z,4.00
2023-04-20T23:15:08.028Z,3.70
2023-04-20T23:17:36.569Z,3.97
2023-04-20T23:20:07.027Z,4.60
2023-04-20T23:22:35.769Z,4.50
2023-04-20T23:25:04.704Z,4.97
2023-04-20T23:27:33.204Z,4.90
2023-04-20T23:30:01.826Z,3.70
2023-04-20T23:32:30.619Z,5.50
2023-04-20T23:34:59.267Z,3.90
2023-04-20T23:37:27.846Z,5.43
2023-04-20T23:39:56.334Z,3.60
2023-04-20T23:42:24.924Z,5.30
2023-04-20T23:44:53.439Z,4.37
2023-04-20T23:47:21.996Z,4.33
2023-04-20T23:49:50.902Z,4.05
2023-04-20T23:52:19.153Z,5.43
2023-04-20T23:54:47.835Z,4.80
2023-04-20T23:57:16.414Z,4.47
2023-04-20T23:59:45.211Z,3.73
